Time;durP1;ratioP1;P1;durP2;ratioP2;P2;SDS_P1;SDS_P2;PMS_P1;PMS_P2;Temp;Humidity;BMP_temperature;BMP_pressure;BME280_temperature;BME280_humidity;BME280_pressure;Samples;Min_cycle;Max_cycle;Signal;HPM_P1;HPM_P2
2021/05/10 00:01:24;;;;;;;2.10;2.00;;;;;;;7.84;100.00;97196.59;5134403;27;20247;-88
2021/05/10 00:03:51;;;;;;;4.00;3.17;;;;;;;7.86;100.00;97207.75;5134514;27;20313;-88
2021/05/10 00:06:18;;;;;;;7.07;6.47;;;;;;;7.86;100.00;97219.06;5134184;27;20287;-88
2021/05/10 00:08:47;;;;;;;5.00;4.60;;;;;;;7.82;100.00;97220.25;5134082;27;20659;-87
2021/05/10 00:11:15;;;;;;;3.70;3.40;;;;;;;7.59;100.00;97205.50;5134120;27;20243;-88
2021/05/10 00:13:45;;;;;;;3.20;2.90;;;;;;;7.48;100.00;97187.13;5134101;27;20271;-89
2021/05/10 00:16:12;;;;;;;5.70;2.30;;;;;;;7.59;100.00;97171.47;5134160;27;20195;-88
2021/05/10 00:18:39;;;;;;;2.37;1.90;;;;;;;7.73;100.00;97176.47;5134036;27;20194;-89
2021/05/10 00:21:06;;;;;;;2.53;2.33;;;;;;;7.58;100.00;97169.78;5134432;27;20217;-88
2021/05/10 00:23:33;;;;;;;2.23;2.03;;;;;;;7.68;100.00;97170.75;5134270;27;20294;-88
2021/05/10 00:26:00;;;;;;;1.63;1.53;;;;;;;7.57;100.00;97179.44;5133878;27;20218;-87
2021/05/10 00:28:36;;;;;;;1.93;1.83;;;;;;;7.66;100.00;97170.06;5134136;27;20199;-87
2021/05/10 00:31:03;;;;;;;1.90;1.60;;;;;;;7.51;100.00;97171.22;5133747;27;20196;-88
2021/05/10 00:33:30;;;;;;;2.63;1.97;;;;;;;7.54;100.00;97158.72;5133584;27;20218;-88
2021/05/10 00:35:56;;;;;;;7.30;2.20;;;;;;;7.29;100.00;97138.84;5133148;27;20663;-87
2021/05/10 00:38:23;;;;;;;3.03;2.00;;;;;;;7.46;100.00;97131.50;5133929;27;20194;-87
2021/05/10 00:40:50;;;;;;;2.30;1.40;;;;;;;7.45;100.00;97137.66;5132990;27;20191;-87
2021/05/10 00:43:18;;;;;;;1.87;1.70;;;;;;;7.53;100.00;97143.16;5133529;27;20191;-88
2021/05/10 00:45:47;;;;;;;3.60;1.70;;;;;;;7.54;100.00;97145.66;5133804;28;20237;-87
2021/05/10 00:48:13;;;;;;;3.37;2.20;;;;;;;7.54;100.00;97140.41;5133744;27;20212;-87
2021/05/10 00:50:40;;;;;;;2.13;1.97;;;;;;;7.57;100.00;97145.41;5133605;28;20270;-87
2021/05/10 00:53:10;;;;;;;2.20;1.90;;;;;;;7.47;100.00;97139.22;5133415;28;20222;-87
2021/05/10 00:55:40;;;;;;;2.63;1.83;;;;;;;7.22;100.00;97111.50;5133716;28;20212;-88
2021/05/10 00:58:09;;;;;;;2.97;1.77;;;;;;;7.30;100.00;97079.53;5134133;28;20358;-88
2021/05/10 01:00:39;;;;;;;3.00;1.83;;;;;;;7.28;100.00;97084.91;5133997;28;20568;-88
2021/05/10 01:03:06;;;;;;;2.00;1.90;;;;;;;7.02;100.00;97071.19;5133398;28;20226;-88
2021/05/10 01:05:33;;;;;;;2.43;2.23;;;;;;;6.95;100.00;97043.88;5133785;28;20677;-88
2021/05/10 01:08:00;;;;;;;1.90;1.80;;;;;;;7.04;100.00;97048.41;5133502;28;20281;-87
2021/05/10 01:10:27;;;;;;;2.50;1.80;;;;;;;7.07;100.00;97034.28;5133814;27;20222;-88
2021/05/10 01:12:54;;;;;;;3.00;1.73;;;;;;;7.04;100.00;97037.94;5133368;28;20702;-88
2021/05/10 01:15:25;;;;;;;2.27;2.07;;;;;;;6.97;100.00;97035.94;5133464;28;20219;-88
2021/05/10 01:17:54;;;;;;;2.10;1.90;;;;;;;6.85;100.00;97046.34;5133699;28;20266;-88
2021/05/10 01:20:23;;;;;;;1.80;1.70;;;;;;;6.85;100.00;97022.81;5133601;27;20250;-88
2021/05/10 01:22:52;;;;;;;1.60;1.50;;;;;;;6.88;100.00;97012.16;5133260;28;20219;-88
2021/05/10 01:25:22;;;;;;;2.17;1.97;;;;;;;6.80;100.00;97004.06;5133144;28;20282;-87
2021/05/10 01:27:49;;;;;;;1.90;1.70;;;;;;;6.77;100.00;97013.94;5133468;28;20233;-86
2021/05/10 01:30:19;;;;;;;2.50;2.30;;;;;;;6.68;100.00;97005.00;5133552;28;20197;-88
2021/05/10 01:32:46;;;;;;;2.20;2.00;;;;;;;6.75;100.00;96998.34;5133260;28;20246;-88
2021/05/10 01:35:15;;;;;;;1.73;1.63;;;;;;;6.69;100.00;96988.38;5133290;28;20234;-88
2021/05/10 01:37:42;;;;;;;1.77;1.67;;;;;;;6.79;100.00;96991.09;5133098;28;20195;-87
2021/05/10 01:40:10;;;;;;;2.13;1.80;;;;;;;6.71;100.00;96994.31;5133194;28;20256;-87
2021/05/10 01:42:38;;;;;;;2.07;1.87;;;;;;;6.58;100.00;96993.56;5133393;28;20286;-87
2021/05/10 01:45:06;;;;;;;1.80;1.70;;;;;;;6.59;100.00;96969.97;5133427;28;20281;-88
2021/05/10 01:47:33;;;;;;;1.60;1.50;;;;;;;6.71;100.00;96983.03;5133121;28;20762;-87
2021/05/10 01:50:00;;;;;;;2.47;2.13;;;;;;;6.82;100.00;96988.25;5133021;28;20304;-88
2021/05/10 01:52:27;;;;;;;1.90;1.77;;;;;;;6.70;100.00;96997.88;5134061;27;20226;-87
2021/05/10 01:54:54;;;;;;;2.17;1.97;;;;;;;6.76;100.00;96981.75;5137082;27;20236;-87
2021/05/10 01:57:22;;;;;;;2.40;1.80;;;;;;;6.79;100.00;97010.25;5137205;27;20277;-87
2021/05/10 01:59:49;;;;;;;1.83;1.73;;;;;;;6.77;100.00;97008.69;5136843;27;20201;-87
2021/05/10 02:02:16;;;;;;;1.80;1.70;;;;;;;6.67;100.00;96998.09;5136645;27;20320;-87
2021/05/10 02:05:09;;;;;;;3.37;1.80;;;;;;;6.44;100.00;96968.50;5136533;27;20300;-87
2021/05/10 02:07:41;;;;;;;1.80;1.70;;;;;;;6.55;100.00;96941.59;5136478;27;20183;-87
2021/05/10 02:10:10;;;;;;;2.40;1.60;;;;;;;6.56;100.00;96964.97;5136670;27;20277;-87
2021/05/10 02:12:38;;;;;;;2.60;1.83;;;;;;;6.34;100.00;96959.69;5136397;27;20278;-88
2021/05/10 02:15:10;;;;;;;3.33;1.70;;;;;;;6.45;100.00;96966.75;5136316;27;20206;-86
2021/05/10 02:17:37;;;;;;;2.03;1.93;;;;;;;6.37;100.00;96964.69;5135837;27;20193;-82
2021/05/10 02:20:07;;;;;;;2.17;2.03;;;;;;;6.35;100.00;96969.22;5135773;27;20552;-82
2021/05/10 02:22:36;;;;;;;3.90;3.37;;;;;;;6.24;100.00;96964.78;5135817;27;20186;-86
2021/05/10 02:25:04;;;;;;;2.43;2.23;;;;;;;6.37;100.00;96956.84;5136093;27;20191;-87
2021/05/10 02:27:31;;;;;;;2.23;2.10;;;;;;;6.21;100.00;96969.41;5136401;27;20224;-87
2021/05/10 02:29:59;;;;;;;1.80;1.70;;;;;;;6.25;100.00;96969.06;5136091;27;20233;-87
2021/05/10 02:32:26;;;;;;;1.83;1.73;;;;;;;6.40;100.00;96970.50;5135865;27;20223;-87
2021/05/10 02:34:53;;;;;;;1.73;1.63;;;;;;;6.45;100.00;96971.97;5135970;27;20191;-87
2021/05/10 02:37:20;;;;;;;2.57;1.97;;;;;;;6.43;100.00;96987.72;5135884;27;20286;-87
2021/05/10 02:39:46;;;;;;;2.57;2.37;;;;;;;6.45;100.00;96993.69;5135814;27;20196;-87
2021/05/10 02:42:13;;;;;;;3.50;2.10;;;;;;;6.42;100.00;96989.53;5135800;27;20197;-87
2021/05/10 02:44:40;;;;;;;2.93;1.80;;;;;;;6.36;100.00;96992.59;5135768;27;20231;-87
2021/05/10 02:47:08;;;;;;;2.20;2.03;;;;;;;6.18;100.00;96989.56;5135999;27;20576;-87
2021/05/10 02:49:35;;;;;;;1.90;1.80;;;;;;;6.22;100.00;96982.34;5135714;27;20190;-87
2021/05/10 02:52:02;;;;;;;1.67;1.57;;;;;;;6.29;100.00;96982.72;5133723;27;20717;-87
2021/05/10 02:54:29;;;;;;;2.23;2.00;;;;;;;6.26;100.00;96985.56;5135293;27;20260;-86
2021/05/10 02:56:55;;;;;;;2.20;1.80;;;;;;;6.28;100.00;96989.72;5135404;27;20766;-87
2021/05/10 02:59:22;;;;;;;1.97;1.87;;;;;;;6.36;100.00;96995.19;5135753;27;20205;-86
2021/05/10 03:01:49;;;;;;;2.43;2.00;;;;;;;6.40;100.00;96993.19;5135600;27;20281;-85
2021/05/10 03:04:17;;;;;;;1.80;1.70;;;;;;;6.38;100.00;96995.91;5134123;27;20637;-85
2021/05/10 03:06:43;;;;;;;4.73;1.70;;;;;;;6.38;100.00;97001.16;5135276;27;20191;-85
2021/05/10 03:09:10;;;;;;;2.77;2.20;;;;;;;6.26;100.00;96989.00;5135292;27;20678;-85
2021/05/10 03:11:37;;;;;;;2.67;1.90;;;;;;;6.24;100.00;96987.47;5134897;27;20195;-90
2021/05/10 03:14:04;;;;;;;2.03;1.83;;;;;;;6.22;100.00;96979.72;5135315;27;20219;-89
2021/05/10 03:16:31;;;;;;;1.70;1.60;;;;;;;6.41;100.00;96981.81;5135197;27;20200;-89
2021/05/10 03:19:08;;;;;;;;;;;;;;;;;;;;;
2021/05/10 03:21:36;;;;;;;2.50;1.60;;;;;;;6.11;100.00;96969.25;5147737;27;20247;-88
2021/05/10 03:24:03;;;;;;;7.10;2.27;;;;;;;6.12;100.00;96970.91;5135182;27;20187;-89
2021/05/10 03:26:30;;;;;;;5.17;2.20;;;;;;;6.03;100.00;96966.41;5134893;27;20286;-87
2021/05/10 03:28:57;;;;;;;3.67;2.37;;;;;;;6.01;100.00;96950.00;5135135;27;20285;-88
2021/05/10 03:31:24;;;;;;;2.33;2.00;;;;;;;6.14;100.00;96951.59;5134996;27;20187;-88
2021/05/10 03:33:51;;;;;;;2.63;1.70;;;;;;;6.22;100.00;96953.63;5135005;27;20218;-90
2021/05/10 03:36:18;;;;;;;3.33;2.10;;;;;;;6.05;100.00;96947.06;5135223;27;20257;-89
2021/05/10 03:38:45;;;;;;;2.07;1.97;;;;;;;6.25;100.00;96937.72;5134885;27;20187;-90
2021/05/10 03:41:12;;;;;;;6.93;3.97;;;;;;;6.24;100.00;96938.69;5134728;27;20199;-89
2021/05/10 03:43:39;;;;;;;2.70;2.43;;;;;;;6.19;100.00;96946.03;5134334;27;20199;-88
2021/05/10 03:46:06;;;;;;;4.30;2.60;;;;;;;6.15;100.00;96945.41;5134413;27;20191;-88
2021/05/10 03:48:33;;;;;;;2.83;2.63;;;;;;;6.13;100.00;96951.69;5134910;27;20285;-89
2021/05/10 03:51:00;;;;;;;20.30;15.63;;;;;;;5.88;100.00;96927.38;5134603;27;20194;-89
2021/05/10 03:53:27;;;;;;;13.43;11.13;;;;;;;5.98;100.00;96908.47;5134370;27;20261;-88
2021/05/10 03:55:54;;;;;;;27.37;14.53;;;;;;;6.10;100.00;96920.63;5134358;27;20269;-94
2021/05/10 03:58:21;;;;;;;12.00;8.67;;;;;;;6.15;100.00;96923.72;5134290;27;20222;-96
2021/05/10 04:00:48;;;;;;;12.90;11.07;;;;;;;6.29;100.00;96923.50;5134812;27;20813;-93
2021/05/10 04:03:16;;;;;;;14.60;10.77;;;;;;;6.43;100.00;96949.41;5134508;27;20313;-93
2021/05/10 04:06:06;;;;;;;6.80;5.40;;;;;;;6.24;100.00;96964.78;5134327;27;20244;-89
2021/05/10 04:08:52;;;;;;;28.77;19.63;;;;;;;6.40;100.00;96959.25;5132035;27;20191;-91
2021/05/10 04:11:34;;;;;;;51.70;34.97;;;;;;;6.56;100.00;96948.47;5133705;27;20234;-90
2021/05/10 04:14:01;;;;;;;56.20;36.73;;;;;;;6.49;100.00;96929.81;5153113;27;20216;-89
2021/05/10 04:16:28;;;;;;;24.70;16.10;;;;;;;6.41;100.00;96913.94;5155173;27;20440;-90
2021/05/10 04:18:55;;;;;;;42.20;28.97;;;;;;;6.41;100.00;96903.47;5154850;27;20186;-90
2021/05/10 04:21:21;;;;;;;69.57;52.57;;;;;;;6.45;100.00;96901.47;5154797;27;20190;-90
2021/05/10 04:23:48;;;;;;;30.33;22.97;;;;;;;6.63;100.00;96905.25;5154904;27;20224;-90
2021/05/10 04:26:15;;;;;;;47.67;35.53;;;;;;;6.54;100.00;96908.56;5154705;27;20190;-90
2021/05/10 04:28:43;;;;;;;126.47;92.53;;;;;;;6.39;100.00;96906.19;5155469;27;20365;-90
2021/05/10 04:31:10;;;;;;;67.93;49.10;;;;;;;6.36;100.00;96890.75;5154588;27;20239;-90
2021/05/10 04:33:36;;;;;;;35.43;24.50;;;;;;;6.48;100.00;96889.00;5154767;27;20271;-90
2021/05/10 04:36:04;;;;;;;28.50;21.20;;;;;;;6.69;100.00;96889.13;5155065;27;20193;-90
2021/05/10 04:38:31;;;;;;;19.17;15.73;;;;;;;6.71;100.00;96897.66;5154639;27;20280;-90
2021/05/10 04:40:59;;;;;;;16.63;11.10;;;;;;;6.92;100.00;96902.97;5154877;27;20240;-90
2021/05/10 04:43:26;;;;;;;9.13;6.23;;;;;;;6.87;100.00;96915.59;5154918;27;20190;-90
2021/05/10 04:45:58;;;;;;;5.10;4.43;;;;;;;7.05;100.00;96913.31;5154679;27;20253;-90
2021/05/10 04:48:25;;;;;;;4.53;4.13;;;;;;;7.21;100.00;96913.78;5154780;27;20182;-90
2021/05/10 04:50:52;;;;;;;3.83;3.47;;;;;;;7.28;100.00;96925.41;5154474;27;20238;-90
2021/05/10 04:53:19;;;;;;;3.80;3.43;;;;;;;7.41;100.00;96922.63;5154759;27;20226;-90
2021/05/10 04:55:45;;;;;;;2.60;2.30;;;;;;;7.15;100.00;96919.47;5154510;27;20208;-90
2021/05/10 04:58:12;;;;;;;2.60;2.40;;;;;;;7.14;100.00;96891.69;5154475;27;20569;-90
2021/05/10 05:00:39;;;;;;;2.80;2.60;;;;;;;7.39;100.00;96877.47;5154488;27;20229;-90
2021/05/10 05:03:07;;;;;;;2.60;2.40;;;;;;;7.51;100.00;96873.84;5154370;27;20237;-90
2021/05/10 05:05:34;;;;;;;2.37;2.17;;;;;;;7.52;100.00;96890.41;5154633;27;20186;-90
2021/05/10 05:08:01;;;;;;;3.60;2.93;;;;;;;7.68;100.00;96889.97;5154491;27;20182;-90
2021/05/10 05:10:28;;;;;;;5.63;3.83;;;;;;;7.60;100.00;96906.28;5154620;27;20198;-90
2021/05/10 05:12:55;;;;;;;2.97;2.77;;;;;;;7.73;100.00;96919.22;5154535;27;20217;-89
2021/05/10 05:15:22;;;;;;;2.60;2.40;;;;;;;7.91;100.00;96933.41;5154555;27;20244;-90
2021/05/10 05:17:49;;;;;;;2.73;2.47;;;;;;;7.85;100.00;96950.44;5154420;27;20201;-90
2021/05/10 05:20:18;;;;;;;5.87;2.37;;;;;;;7.96;100.00;96964.44;5154382;27;20792;-90
2021/05/10 05:22:45;;;;;;;2.70;2.50;;;;;;;8.24;100.00;96990.03;5154181;27;20186;-90
2021/05/10 05:25:13;;;;;;;5.53;2.30;;;;;;;8.33;100.00;97007.59;5154468;27;20254;-90
2021/05/10 05:27:40;;;;;;;4.77;2.27;;;;;;;8.52;100.00;97029.66;5155803;27;20198;-90
2021/05/10 05:30:09;;;;;;;21.93;10.83;;;;;;;8.52;100.00;97054.09;5158222;27;20182;-91
2021/05/10 05:32:35;;;;;;;49.83;31.57;;;;;;;8.89;100.00;97056.25;5158508;27;20260;-90
2021/05/10 05:35:03;;;;;;;7.47;5.87;;;;;;;8.97;100.00;97077.44;5158985;27;20603;-90
2021/05/10 05:37:30;;;;;;;5.73;3.97;;;;;;;9.12;100.00;97085.81;5158321;27;20201;-89
2021/05/10 05:39:57;;;;;;;5.33;4.13;;;;;;;9.37;100.00;97100.28;5157966;27;20232;-90
2021/05/10 05:42:24;;;;;;;3.53;2.77;;;;;;;9.38;100.00;97116.84;5158257;27;20194;-90
2021/05/10 05:44:54;;;;;;;2.67;2.30;;;;;;;9.55;100.00;97126.75;5157976;27;20627;-90
2021/05/10 05:47:24;;;;;;;7.17;2.50;;;;;;;9.70;100.00;97146.44;5158031;27;20603;-90
2021/05/10 05:49:52;;;;;;;2.03;1.90;;;;;;;9.82;100.00;97155.06;5157941;27;20230;-90
2021/05/10 05:52:20;;;;;;;6.13;2.50;;;;;;;10.15;100.00;97148.69;5157532;27;20254;-91
2021/05/10 05:54:48;;;;;;;2.60;2.20;;;;;;;10.45;100.00;97175.88;5157621;27;20733;-90
2021/05/10 05:57:15;;;;;;;2.23;1.97;;;;;;;10.63;100.00;97179.53;5157721;27;20742;-90
2021/05/10 05:59:42;;;;;;;3.83;1.77;;;;;;;10.91;100.00;97195.44;5157725;27;20681;-91
2021/05/10 06:02:09;;;;;;;4.43;1.90;;;;;;;10.70;100.00;97195.53;5157980;27;20198;-90
2021/05/10 06:04:36;;;;;;;3.33;1.77;;;;;;;11.07;100.00;97193.09;5157418;27;20285;-90
2021/05/10 06:07:02;;;;;;;2.40;2.20;;;;;;;11.27;100.00;97207.06;5157392;27;20289;-90
2021/05/10 06:09:29;;;;;;;3.40;2.10;;;;;;;11.44;100.00;97205.53;5157501;27;20216;-91
2021/05/10 06:11:57;;;;;;;1.60;1.50;;;;;;;11.54;100.00;97213.41;5157616;27;20228;-90
2021/05/10 06:14:24;;;;;;;2.03;1.90;;;;;;;11.71;100.00;97217.94;5157369;27;20202;-90
2021/05/10 06:16:51;;;;;;;4.23;2.00;;;;;;;11.58;100.00;97220.88;5156463;27;20225;-90
2021/05/10 06:19:18;;;;;;;5.23;1.73;;;;;;;11.99;100.00;97212.78;5156557;27;20213;-90
2021/05/10 06:21:44;;;;;;;1.80;1.70;;;;;;;12.20;100.00;97217.81;5156943;27;20311;-90
2021/05/10 06:24:11;;;;;;;2.30;2.10;;;;;;;12.40;100.00;97229.94;5148165;27;20589;-91
2021/05/10 06:26:40;;;;;;;2.10;1.90;;;;;;;12.38;100.00;97229.25;5135472;27;20208;-91
2021/05/10 06:29:08;;;;;;;2.37;2.00;;;;;;;12.61;100.00;97221.78;5136274;27;20198;-91
2021/05/10 06:31:34;;;;;;;2.97;2.77;;;;;;;12.84;100.00;97223.00;5136352;27;20201;-90
2021/05/10 06:34:05;;;;;;;3.53;2.60;;;;;;;13.43;100.00;97215.47;5136183;27;20218;-90
2021/05/10 06:36:31;;;;;;;5.37;2.17;;;;;;;13.61;100.00;97218.06;5136422;27;20261;-91
2021/05/10 06:38:58;;;;;;;3.63;1.60;;;;;;;13.30;100.00;97229.09;5134802;27;20208;-91
2021/05/10 06:41:25;;;;;;;1.63;1.50;;;;;;;13.50;100.00;97221.78;5135664;27;20286;-90
2021/05/10 06:43:52;;;;;;;4.27;1.47;;;;;;;13.61;100.00;97223.34;5136103;27;20731;-91
2021/05/10 06:46:19;;;;;;;4.87;1.63;;;;;;;14.04;100.00;97224.31;5136043;27;20718;-91
2021/05/10 06:48:46;;;;;;;4.97;1.53;;;;;;;14.42;100.00;97208.97;5135844;27;20697;-93
2021/05/10 06:51:13;;;;;;;6.13;1.93;;;;;;;14.59;100.00;97209.88;5135824;27;20199;-93
2021/05/10 06:53:43;;;;;;;1.73;1.60;;;;;;;14.56;100.00;97212.84;5135615;27;20230;-91
2021/05/10 06:56:10;;;;;;;2.73;2.07;;;;;;;14.56;100.00;97212.84;5136100;27;20228;-92
2021/05/10 06:58:37;;;;;;;7.53;3.23;;;;;;;14.85;100.00;97205.31;5136198;27;20683;-93
2021/05/10 07:01:04;;;;;;;4.00;1.80;;;;;;;15.11;100.00;97207.00;5136395;27;20578;-92
2021/05/10 07:03:32;;;;;;;1.80;1.47;;;;;;;14.77;100.00;97207.94;5135654;27;20730;-92
2021/05/10 07:05:58;;;;;;;1.97;1.60;;;;;;;15.49;100.00;97199.41;5135480;27;20678;-92
2021/05/10 07:08:25;;;;;;;1.73;1.60;;;;;;;15.84;100.00;97196.41;5135712;27;20304;-92
2021/05/10 07:10:58;;;;;;;3.30;2.70;;;;;;;16.05;100.00;97190.56;5135814;27;20278;-92
2021/05/10 07:13:25;;;;;;;1.73;1.60;;;;;;;16.01;100.00;97194.53;5135701;27;20219;-91
2021/05/10 07:15:52;;;;;;;4.90;1.57;;;;;;;16.01;100.00;97197.19;5135643;27;20224;-92
2021/05/10 07:18:19;;;;;;;2.07;1.20;;;;;;;16.40;100.00;97193.75;5135188;27;20229;-92
2021/05/10 07:20:47;;;;;;;1.50;1.40;;;;;;;15.91;100.00;97199.22;5135733;27;20223;-91
2021/05/10 07:23:16;;;;;;;2.77;1.30;;;;;;;15.93;100.00;97198.06;5135516;27;20196;-92
2021/05/10 07:25:45;;;;;;;2.67;1.57;;;;;;;16.36;100.00;97193.25;5135498;27;20222;-92
2021/05/10 07:28:13;;;;;;;4.10;1.70;;;;;;;16.38;100.00;97196.56;5135508;27;20652;-93
2021/05/10 07:30:41;;;;;;;2.20;1.87;;;;;;;16.31;100.00;97200.06;5135040;27;20224;-92
2021/05/10 07:33:08;;;;;;;3.17;1.87;;;;;;;16.36;100.00;97193.25;5135305;27;20211;-90
2021/05/10 07:35:35;;;;;;;1.77;1.67;;;;;;;16.23;100.00;97198.28;5135127;27;20578;-91
2021/05/10 07:38:04;;;;;;;1.70;1.60;;;;;;;16.59;100.00;97187.16;5135020;27;20191;-92
2021/05/10 07:40:31;;;;;;;2.20;1.80;;;;;;;16.50;100.00;97194.38;5134989;27;20194;-91
2021/05/10 07:42:59;;;;;;;2.07;1.63;;;;;;;16.15;100.00;97196.50;5134457;27;20189;-91
2021/05/10 07:45:27;;;;;;;3.07;1.73;;;;;;;16.33;100.00;97190.13;5134677;27;20256;-90
2021/05/10 07:47:54;;;;;;;1.47;1.37;;;;;;;16.67;100.00;97184.50;5134784;27;20273;-89
2021/05/10 07:50:22;;;;;;;2.80;1.57;;;;;;;17.14;100.00;97175.56;5134413;27;20191;-91
2021/05/10 07:52:48;;;;;;;3.47;2.20;;;;;;;16.84;100.00;97180.78;5134732;27;20771;-91
2021/05/10 07:55:17;;;;;;;1.90;1.70;;;;;;;16.92;100.00;97182.53;5134407;27;20242;-91
2021/05/10 07:57:48;;;;;;;1.60;1.50;;;;;;;17.05;100.00;97187.28;5134759;27;20196;-91
2021/05/10 08:00:19;;;;;;;2.13;1.43;;;;;;;17.21;100.00;97183.66;5134531;27;20679;-91
2021/05/10 08:02:50;;;;;;;2.77;2.30;;;;;;;17.51;100.00;97176.59;5133909;27;20185;-91
2021/05/10 08:05:17;;;;;;;1.50;1.40;;;;;;;17.63;100.00;97179.66;5134564;27;20598;-91
2021/05/10 08:07:44;;;;;;;1.60;1.50;;;;;;;17.66;100.00;97172.13;5134225;27;20197;-90
2021/05/10 08:10:12;;;;;;;1.47;1.33;;;;;;;17.67;100.00;97165.00;5134359;27;20209;-92
2021/05/10 08:12:39;;;;;;;1.77;1.57;;;;;;;17.33;100.00;97175.09;5134158;27;20222;-92
2021/05/10 08:15:08;;;;;;;3.13;2.77;;;;;;;17.69;100.00;97158.47;5134185;27;20198;-91
2021/05/10 08:17:35;;;;;;;1.83;1.60;;;;;;;17.37;100.00;97174.75;5134249;27;20197;-90
2021/05/10 08:20:04;;;;;;;3.93;1.73;;;;;;;17.71;100.00;97164.47;5134040;27;20193;-90
2021/05/10 08:22:31;;;;;;;2.00;1.70;;;;;;;17.68;100.00;97162.16;5134183;27;20198;-90
2021/05/10 08:24:58;;;;;;;1.53;1.40;;;;;;;17.90;100.00;97156.97;5134067;27;20220;-91
2021/05/10 08:27:25;;;;;;;1.73;1.63;;;;;;;17.34;100.00;97158.16;5134499;27;20228;-91
2021/05/10 08:29:52;;;;;;;1.73;1.63;;;;;;;17.25;100.00;97156.59;5134151;27;20221;-90
2021/05/10 08:32:19;;;;;;;1.77;1.50;;;;;;;17.51;100.00;97158.81;5134186;27;20394;-91
2021/05/10 08:34:46;;;;;;;1.80;1.70;;;;;;;17.24;100.00;97170.84;5133990;27;20198;-90
2021/05/10 08:37:13;;;;;;;2.03;1.63;;;;;;;17.42;100.00;97161.72;5134100;27;20284;-88
2021/05/10 08:39:40;;;;;;;1.83;1.73;;;;;;;17.18;100.00;97176.91;5133902;27;20193;-90
2021/05/10 08:42:07;;;;;;;2.70;1.77;;;;;;;17.40;100.00;97158.44;5134109;27;20241;-90
2021/05/10 08:44:40;;;;;;;2.77;1.33;;;;;;;17.00;100.00;97171.84;5134072;27;20580;-89
2021/05/10 08:47:08;;;;;;;2.10;1.60;;;;;;;17.64;100.00;97150.25;5133903;27;20192;-89
2021/05/10 08:49:35;;;;;;;2.63;1.37;;;;;;;17.56;100.00;97156.47;5133806;27;20193;-90
2021/05/10 08:52:02;;;;;;;1.43;1.33;;;;;;;17.36;100.00;97150.00;5134056;27;20298;-90
2021/05/10 08:54:31;;;;;;;1.50;1.40;;;;;;;17.19;100.00;97159.94;5134077;27;20261;-90
2021/05/10 08:57:00;;;;;;;2.57;1.40;;;;;;;17.55;100.00;97152.13;5133992;27;20266;-91
2021/05/10 08:59:30;;;;;;;2.30;1.57;;;;;;;17.74;100.00;97149.97;5134254;27;20218;-90
2021/05/10 09:01:59;;;;;;;1.47;1.37;;;;;;;17.76;100.00;97148.81;5133891;27;20280;-90
2021/05/10 09:04:33;;;;;;;2.10;1.63;;;;;;;17.96;100.00;97142.94;5137760;27;20240;-91
2021/05/10 09:07:17;;;;;;;3.63;1.60;;;;;;;17.47;100.00;97148.75;5138030;27;20279;-90
2021/05/10 09:09:51;;;;;;;4.10;2.03;;;;;;;17.97;100.00;97129.47;5137847;27;20198;-90
2021/05/10 09:12:20;;;;;;;2.20;1.60;;;;;;;18.42;100.00;97127.56;5137334;27;20739;-89
2021/05/10 09:14:46;;;;;;;1.43;1.33;;;;;;;18.58;100.00;97125.72;5137400;27;20190;-90
2021/05/10 09:17:13;;;;;;;1.57;1.47;;;;;;;18.54;100.00;97111.97;5137906;27;20234;-90
2021/05/10 09:19:42;;;;;;;1.67;1.57;;;;;;;18.39;100.00;97117.31;5137809;27;20198;-90
2021/05/10 09:22:09;;;;;;;1.67;1.50;;;;;;;17.76;100.00;97114.25;5137665;27;20204;-90
2021/05/10 09:24:49;;;;;;;3.13;1.53;;;;;;;17.90;100.00;97123.22;5137871;27;20193;-90
2021/05/10 09:27:25;;;;;;;1.60;1.20;;;;;;;17.97;100.00;97123.31;5137842;27;20284;-90
2021/05/10 09:30:12;;;;;;;1.63;1.40;;;;;;;18.21;100.00;97116.88;5137743;27;20182;-90
2021/05/10 09:32:39;;;;;;;1.70;1.40;;;;;;;18.18;100.00;97109.25;5136967;27;20249;-90
2021/05/10 09:35:22;;;;;;;2.47;1.60;;;;;;;18.14;100.00;97102.66;5137492;27;20220;-91
2021/05/10 09:38:01;;;;;;;1.30;1.27;;;;;;;17.88;100.00;97105.81;5137206;27;20273;-90
2021/05/10 09:40:31;;;;;;;1.30;1.20;;;;;;;18.20;100.00;97108.06;5137242;27;20179;-91
2021/05/10 09:42:59;;;;;;;4.70;1.80;;;;;;;18.46;100.00;97096.94;5138380;27;20281;-90
2021/05/10 09:45:34;;;;;;;3.50;1.17;;;;;;;18.46;100.00;97096.06;5137192;27;20686;-92
2021/05/10 09:48:20;;;;;;;2.27;1.40;;;;;;;18.03;100.00;97090.66;5137216;27;20262;-91
2021/05/10 09:50:50;;;;;;;1.30;1.30;;;;;;;18.67;100.00;97080.16;5127534;27;20190;-90
2021/05/10 09:53:28;;;;;;;1.20;1.07;;;;;;;18.39;100.00;97084.53;5137359;27;20242;-91
2021/05/10 09:55:56;;;;;;;2.07;1.60;;;;;;;18.65;100.00;97086.66;5137274;27;20202;-90
2021/05/10 09:58:25;;;;;;;2.17;1.40;;;;;;;18.53;100.00;97084.50;5136746;27;20243;-90
2021/05/10 10:00:58;;;;;;;1.40;1.30;;;;;;;19.11;100.00;97063.13;5136843;27;20187;-90
2021/05/10 10:03:30;;;;;;;1.10;1.00;;;;;;;18.91;100.00;97062.16;5136302;27;20309;-90
2021/05/10 10:06:00;;;;;;;1.47;1.37;;;;;;;19.31;100.00;97055.31;5137025;27;20675;-90
2021/05/10 10:08:27;;;;;;;2.93;1.40;;;;;;;19.51;100.00;97050.09;5135968;27;20226;-89
2021/05/10 10:11:02;;;;;;;3.50;1.57;;;;;;;19.41;100.00;97044.31;5136070;27;20631;-90
2021/05/10 10:13:31;;;;;;;1.60;1.50;;;;;;;19.08;100.00;97047.53;5135950;27;20305;-89
2021/05/10 10:15:59;;;;;;;1.83;1.43;;;;;;;18.95;100.00;97048.28;5136557;27;20220;-90
2021/05/10 10:18:27;;;;;;;1.40;1.30;;;;;;;18.86;100.00;97053.91;5135319;27;20186;-88
2021/05/10 10:20:56;;;;;;;1.43;1.20;;;;;;;18.66;100.00;97049.19;5129528;27;20207;-90
2021/05/10 10:23:27;;;;;;;2.73;1.63;;;;;;;18.98;100.00;97036.38;5136542;27;20207;-90
2021/05/10 10:25:58;;;;;;;1.30;1.23;;;;;;;18.86;100.00;97038.75;5136753;27;20178;-90
2021/05/10 10:28:27;;;;;;;5.40;2.00;;;;;;;19.26;100.00;97033.75;5136182;27;20282;-90
2021/05/10 10:31:02;;;;;;;1.57;1.40;;;;;;;19.29;100.00;97025.34;5136302;27;20574;-91
2021/05/10 10:33:40;;;;;;;3.10;1.57;;;;;;;19.18;100.00;97031.22;5135212;27;20218;-91
2021/05/10 10:36:17;;;;;;;3.00;1.60;;;;;;;19.01;100.00;97038.66;5136188;27;20664;-91
2021/05/10 10:39:12;;;;;;;2.17;1.27;;;;;;;19.58;100.00;97021.63;5115413;28;20179;-90
2021/05/10 10:41:55;;;;;;;2.43;1.63;;;;;;;19.08;100.00;97025.41;5115428;27;20235;-90
2021/05/10 10:44:32;;;;;;;2.70;1.40;;;;;;;19.55;100.00;97021.22;5122754;27;20204;-91
2021/05/10 10:46:59;;;;;;;1.80;1.50;;;;;;;19.95;100.00;97006.22;5135953;27;20190;-91
2021/05/10 10:49:34;;;;;;;2.13;2.00;;;;;;;20.38;100.00;97000.63;5135020;27;20266;-91
2021/05/10 10:52:02;;;;;;;1.70;1.60;;;;;;;20.59;100.00;96994.31;5135445;27;20194;-91
2021/05/10 10:54:32;;;;;;;1.97;1.50;;;;;;;20.58;100.00;96990.00;5135542;27;20218;-91
2021/05/10 10:57:09;;;;;;;4.13;1.30;;;;;;;20.63;100.00;96982.19;5136734;27;20635;-91
2021/05/10 10:59:37;;;;;;;2.00;1.37;;;;;;;20.03;100.00;96990.06;5134621;27;20198;-90
2021/05/10 11:02:23;;;;;;;3.17;1.70;;;;;;;20.59;100.00;96976.44;5135425;27;20202;-92
2021/05/10 11:05:11;;;;;;;1.60;1.50;;;;;;;20.58;100.00;96974.81;5134018;27;20640;-90
2021/05/10 11:07:50;;;;;;;1.03;1.00;;;;;;;19.69;100.00;96991.78;5135262;27;20217;-91
2021/05/10 11:10:43;;;;;;;1.20;1.20;;;;;;;19.38;100.00;96994.03;5135584;27;20202;-94
2021/05/10 11:13:34;;;;;;;3.13;1.30;;;;;;;20.72;100.00;96959.59;5135681;27;20708;-90
2021/05/10 11:16:01;;;;;;;4.50;1.50;;;;;;;20.54;100.00;96968.22;5134361;27;20751;-91
2021/05/10 11:18:44;;;;;;;1.60;1.50;;;;;;;19.94;100.00;96967.25;5134789;27;20234;-90
2021/05/10 11:21:43;;;;;;;2.50;1.50;;;;;;;19.89;100.00;96967.84;5125376;27;20202;-91
2021/05/10 11:24:13;;;;;;;3.33;3.13;;;;;;;20.49;100.00;96954.63;5071885;28;20200;-90
2021/05/10 11:26:44;;;;;;;2.23;1.20;;;;;;;20.28;100.00;96962.81;5071877;28;20657;-91
2021/05/10 11:29:34;;;;;;;12.40;3.07;;;;;;;20.23;100.00;96960.75;5071211;28;20240;-90
2021/05/10 11:32:31;;;;;;;2.27;1.23;;;;;;;20.04;100.00;96956.19;5071947;28;20201;-92
2021/05/10 11:35:37;;;;;;;1.30;1.20;;;;;;;20.21;100.00;96956.66;5070634;28;20203;-91
2021/05/10 11:38:07;;;;;;;2.73;1.77;;;;;;;20.38;100.00;96948.03;5072013;28;20201;-91
2021/05/10 11:40:35;;;;;;;2.30;1.47;;;;;;;20.66;100.00;96931.03;5071512;28;20193;-90